Adamsville, Alabama
Current Conditions -  °F | °C
As of 9:53 AM on Tuesday 27 Jan 2015 (Local Time) from KBHM Reporting Station
Few Clouds Few Clouds  
Wind Chill: 43°   Ceiling: Unl
Heat Index: 48°   Visibility: 10mi
Dew Point: 35°   Wind: 13mph
Humidity: 61%   Direction: 350°N
Pressure: 30.06"   Gusts: NA
Location:  33.6°N, 86.96°W
Report Text: KBHM 271553Z 35011KT 10SM FEW060 09/02 A3006 RMK AO2 SLP178 T00890017
Loading
Personal Weather Stations






























Interactive Weather Map New forecast layout! Learn more

10-Day Weather Forecast

Advertisements
Track Severe Weather on mobile